Time;durP1;ratioP1;P1;durP2;ratioP2;P2;SDS_P1;SDS_P2;PMS_P1;PMS_P2;Temp;Humidity;BMP_temperature;BMP_pressure;BME280_temperature;BME280_humidity;BME280_pressure;Samples;Min_cycle;Max_cycle;Signal;HPM_P1;HPM_P2
2023/12/08 00:00:35;;;;;;;16.10;9.50;;;;;;;;;;5015845;28;20026;-79
2023/12/08 00:03:01;;;;;;;16.13;8.32;;;;;;;;;;5015146;28;20166;-80
2023/12/08 00:05:27;;;;;;;17.05;8.13;;;;;;;;;;5014498;28;20048;-78
2023/12/08 00:07:53;;;;;;;12.27;7.47;;;;;;;;;;5015517;28;20030;-79
2023/12/08 00:10:19;;;;;;;13.82;8.07;;;;;;;;;;5026588;28;20026;-77
2023/12/08 00:12:45;;;;;;;12.77;7.47;;;;;;;;;;5019602;28;20030;-79
2023/12/08 00:15:12;;;;;;;10.57;6.03;;;;;;;;;;5015622;28;20053;-79
2023/12/08 00:20:11;;;;;;;12.52;6.70;;;;;;;;;;5030155;28;20415;-77
2023/12/08 00:22:37;;;;;;;11.38;6.68;;;;;;;;;;5036248;28;20033;-77
2023/12/08 00:25:04;;;;;;;10.98;5.85;;;;;;;;;;5038366;28;20037;-77
2023/12/08 00:27:30;;;;;;;10.63;6.60;;;;;;;;;;5038167;28;20018;-77
2023/12/08 00:29:56;;;;;;;12.25;6.53;;;;;;;;;;5036642;28;20026;-77
2023/12/08 00:32:22;;;;;;;10.25;5.97;;;;;;;;;;5036908;28;20037;-77
2023/12/08 00:34:48;;;;;;;10.60;6.78;;;;;;;;;;5030862;28;20038;-77
2023/12/08 00:37:14;;;;;;;12.02;6.57;;;;;;;;;;5037597;28;20033;-76
2023/12/08 00:39:40;;;;;;;9.38;6.07;;;;;;;;;;5037063;28;20105;-77
2023/12/08 00:42:06;;;;;;;9.63;5.15;;;;;;;;;;5036461;28;20049;-77
2023/12/08 00:44:33;;;;;;;9.38;4.75;;;;;;;;;;5041337;28;20076;-76
2023/12/08 00:46:59;;;;;;;8.48;5.20;;;;;;;;;;5043374;28;20088;-77
2023/12/08 00:49:25;;;;;;;7.03;4.68;;;;;;;;;;5043095;28;20052;-77
2023/12/08 00:51:52;;;;;;;7.00;4.57;;;;;;;;;;5040669;28;20037;-77
2023/12/08 00:54:18;;;;;;;7.63;4.80;;;;;;;;;;5035615;28;20056;-74
2023/12/08 00:56:44;;;;;;;8.68;5.45;;;;;;;;;;5055416;28;20036;-74
2023/12/08 00:59:10;;;;;;;7.72;4.80;;;;;;;;;;5055238;28;20039;-75
2023/12/08 01:01:36;;;;;;;6.72;4.63;;;;;;;;;;5055196;28;20013;-75
2023/12/08 01:04:02;;;;;;;7.57;4.43;;;;;;;;;;5048010;28;20013;-75
2023/12/08 01:06:28;;;;;;;6.28;4.18;;;;;;;;;;5054188;28;20040;-75
2023/12/08 01:08:54;;;;;;;8.02;4.90;;;;;;;;;;5053021;28;20040;-74
2023/12/08 01:11:20;;;;;;;7.60;4.40;;;;;;;;;;5053609;28;20030;-74
2023/12/08 01:13:46;;;;;;;7.72;4.53;;;;;;;;;;5035502;28;20059;-77
2023/12/08 01:16:12;;;;;;;7.20;4.28;;;;;;;;;;5035948;28;20029;-77
2023/12/08 01:18:38;;;;;;;8.15;4.50;;;;;;;;;;5037894;28;20045;-77
2023/12/08 01:21:04;;;;;;;6.75;4.38;;;;;;;;;;5043927;28;20030;-77
2023/12/08 01:23:31;;;;;;;9.57;5.57;;;;;;;;;;5040880;28;20369;-76
2023/12/08 01:25:57;;;;;;;11.65;5.68;;;;;;;;;;5042170;28;20013;-77
2023/12/08 01:28:23;;;;;;;10.30;6.00;;;;;;;;;;5032478;28;20556;-76
2023/12/08 01:30:49;;;;;;;10.35;6.40;;;;;;;;;;5030890;28;20026;-76
2023/12/08 01:33:15;;;;;;;9.70;5.80;;;;;;;;;;5038040;28;20029;-76
2023/12/08 01:35:41;;;;;;;9.05;5.68;;;;;;;;;;5025859;28;20022;-76
2023/12/08 01:38:08;;;;;;;8.63;5.35;;;;;;;;;;5031470;28;20018;-77
2023/12/08 01:40:37;;;;;;;7.35;4.90;;;;;;;;;;5028920;28;20026;-77
2023/12/08 01:43:10;;;;;;;9.95;5.70;;;;;;;;;;5030029;28;20030;-76
2023/12/08 01:45:36;;;;;;;;;;;;;;;;;;5032853;28;20372;-77
2023/12/08 01:48:02;;;;;;;9.43;5.28;;;;;;;;;;5039671;28;19981;-75
2023/12/08 01:50:28;;;;;;;10.77;5.78;;;;;;;;;;5051845;28;20033;-75
2023/12/08 01:52:54;;;;;;;7.72;5.15;;;;;;;;;;5053334;28;20022;-75
2023/12/08 01:55:20;;;;;;;9.25;5.15;;;;;;;;;;5053434;28;20024;-75
2023/12/08 01:57:46;;;;;;;7.55;4.72;;;;;;;;;;5050011;28;20065;-75
2023/12/08 02:00:13;;;;;;;7.30;4.75;;;;;;;;;;5048437;28;20026;-75
2023/12/08 02:02:39;;;;;;;8.20;4.60;;;;;;;;;;5049994;28;20046;-75
2023/12/08 02:05:06;;;;;;;6.00;3.80;;;;;;;;;;5042282;28;20030;-76
2023/12/08 02:07:33;;;;;;;9.20;4.82;;;;;;;;;;5036505;28;20029;-76
2023/12/08 02:09:59;;;;;;;7.32;4.05;;;;;;;;;;5027971;28;20026;-77
2023/12/08 02:12:25;;;;;;;7.88;4.25;;;;;;;;;;5027249;28;20024;-77
2023/12/08 02:14:52;;;;;;;5.70;4.07;;;;;;;;;;5024222;28;20090;-76
2023/12/08 02:17:23;;;;;;;8.68;4.22;;;;;;;;;;5032837;28;20021;-77
2023/12/08 02:19:50;;;;;;;5.70;3.87;;;;;;;;;;5030292;28;20022;-77
2023/12/08 02:22:22;;;;;;;7.57;4.38;;;;;;;;;;5030400;28;20025;-77
2023/12/08 02:24:48;;;;;;;7.93;3.90;;;;;;;;;;5028760;28;20056;-77
2023/12/08 02:27:15;;;;;;;8.02;4.80;;;;;;;;;;5030111;28;20029;-77
2023/12/08 02:29:42;;;;;;;7.38;5.05;;;;;;;;;;5029013;28;20416;-77
2023/12/08 02:32:18;;;;;;;7.97;4.55;;;;;;;;;;5035031;28;20022;-76
2023/12/08 02:34:45;;;;;;;8.88;4.97;;;;;;;;;;5027754;28;20476;-76
2023/12/08 02:37:12;;;;;;;8.75;5.50;;;;;;;;;;5028681;28;20033;-77
2023/12/08 02:39:39;;;;;;;7.63;5.00;;;;;;;;;;5027029;28;20029;-77
2023/12/08 02:42:05;;;;;;;6.10;4.18;;;;;;;;;;5027592;28;20029;-77
2023/12/08 02:44:32;;;;;;;8.68;4.93;;;;;;;;;;5026883;28;20053;-77
2023/12/08 02:46:58;;;;;;;7.57;4.45;;;;;;;;;;5025839;28;20575;-77
2023/12/08 02:49:24;;;;;;;7.88;4.47;;;;;;;;;;5027367;28;20040;-77
2023/12/08 02:51:50;;;;;;;9.70;5.65;;;;;;;;;;5025923;28;20041;-77
2023/12/08 02:54:16;;;;;;;10.32;5.60;;;;;;;;;;5028952;28;20021;-77
2023/12/08 02:56:42;;;;;;;9.90;5.30;;;;;;;;;;5033560;28;20029;-77
2023/12/08 02:59:08;;;;;;;8.10;4.80;;;;;;;;;;5034736;28;20403;-77
2023/12/08 03:01:34;;;;;;;9.95;5.10;;;;;;;;;;5033353;28;20080;-77
2023/12/08 03:04:01;;;;;;;8.95;4.47;;;;;;;;;;5032696;28;20026;-77
2023/12/08 03:06:27;;;;;;;5.57;3.78;;;;;;;;;;5027851;28;20148;-76
2023/12/08 03:08:54;;;;;;;6.38;3.88;;;;;;;;;;5033643;28;20033;-75
2023/12/08 03:11:20;;;;;;;6.32;4.18;;;;;;;;;;5036834;28;20468;-76
2023/12/08 03:13:46;;;;;;;7.07;3.30;;;;;;;;;;5032552;28;20021;-77
2023/12/08 03:16:12;;;;;;;5.13;3.30;;;;;;;;;;5034626;28;20421;-76
2023/12/08 03:18:38;;;;;;;4.25;3.05;;;;;;;;;;5032558;28;20064;-77
2023/12/08 03:21:04;;;;;;;5.22;2.70;;;;;;;;;;5034095;28;20037;-76
2023/12/08 03:23:30;;;;;;;4.80;2.70;;;;;;;;;;5033429;28;20096;-76
2023/12/08 03:25:56;;;;;;;4.85;2.90;;;;;;;;;;5032784;28;20033;-77
2023/12/08 03:28:22;;;;;;;4.68;3.05;;;;;;;;;;5034598;28;20021;-77
2023/12/08 03:30:48;;;;;;;4.20;2.92;;;;;;;;;;5034412;28;20032;-77
2023/12/08 03:33:15;;;;;;;3.17;2.40;;;;;;;;;;5043559;28;20033;-77
2023/12/08 03:35:41;;;;;;;2.92;2.22;;;;;;;;;;5035503;28;20025;-76
2023/12/08 03:38:07;;;;;;;3.78;2.45;;;;;;;;;;5032596;28;20472;-76
2023/12/08 03:40:33;;;;;;;4.70;2.60;;;;;;;;;;5033004;28;20025;-76
2023/12/08 03:42:59;;;;;;;3.55;2.25;;;;;;;;;;5032311;28;20025;-76
2023/12/08 03:45:25;;;;;;;4.85;2.70;;;;;;;;;;5033249;28;20030;-77
2023/12/08 03:47:51;;;;;;;2.97;2.25;;;;;;;;;;5033181;28;20045;-76
2023/12/08 03:50:17;;;;;;;3.95;2.67;;;;;;;;;;5033345;28;20029;-76
2023/12/08 03:52:43;;;;;;;4.78;2.22;;;;;;;;;;5032902;28;20123;-76
2023/12/08 03:55:09;;;;;;;4.50;2.40;;;;;;;;;;5032209;28;20082;-76
2023/12/08 03:57:35;;;;;;;4.05;2.40;;;;;;;;;;5032908;28;20025;-76
2023/12/08 04:00:01;;;;;;;3.60;2.30;;;;;;;;;;5033687;28;20025;-77
2023/12/08 04:02:28;;;;;;;4.13;2.97;;;;;;;;;;5036655;28;20055;-76
2023/12/08 04:04:54;;;;;;;6.28;3.45;;;;;;;;;;5052980;28;20033;-77
2023/12/08 04:07:20;;;;;;;5.28;3.10;;;;;;;;;;5033905;28;20025;-76
2023/12/08 04:09:46;;;;;;;4.35;2.95;;;;;;;;;;5033756;28;20044;-77
2023/12/08 04:12:12;;;;;;;5.72;3.28;;;;;;;;;;5033136;28;20726;-77
2023/12/08 04:14:38;;;;;;;5.57;3.20;;;;;;;;;;5034651;28;20025;-77
2023/12/08 04:17:04;;;;;;;6.05;3.85;;;;;;;;;;5033572;28;20124;-76
2023/12/08 04:19:31;;;;;;;5.85;3.97;;;;;;;;;;5033571;28;20037;-77
2023/12/08 04:21:57;;;;;;;5.50;3.80;;;;;;;;;;5031785;28;20029;-74
2023/12/08 04:24:23;;;;;;;5.28;3.15;;;;;;;;;;5031954;28;20048;-76
2023/12/08 04:26:49;;;;;;;6.30;3.38;;;;;;;;;;5037179;28;20495;-76
2023/12/08 04:29:15;;;;;;;5.72;3.38;;;;;;;;;;5033460;28;20017;-77
2023/12/08 04:31:41;;;;;;;6.50;3.50;;;;;;;;;;5033995;28;20025;-77
2023/12/08 04:34:07;;;;;;;6.72;3.85;;;;;;;;;;5042718;28;20029;-76
2023/12/08 04:36:33;;;;;;;6.75;3.90;;;;;;;;;;5031526;28;20478;-77
2023/12/08 04:38:59;;;;;;;6.93;3.88;;;;;;;;;;5031993;28;20033;-77
2023/12/08 04:41:26;;;;;;;6.93;4.32;;;;;;;;;;5032576;28;20471;-76
2023/12/08 04:43:52;;;;;;;7.35;4.68;;;;;;;;;;5024759;28;20030;-77
2023/12/08 04:46:18;;;;;;;7.00;4.20;;;;;;;;;;5028125;28;20029;-75
2023/12/08 04:48:44;;;;;;;7.80;4.35;;;;;;;;;;5039500;28;20042;-76
2023/12/08 04:51:10;;;;;;;7.68;5.10;;;;;;;;;;5032137;28;20026;-75
2023/12/08 04:53:36;;;;;;;5.88;4.00;;;;;;;;;;5025964;28;20393;-76
2023/12/08 04:56:02;;;;;;;5.97;3.88;;;;;;;;;;5031687;28;20026;-76
2023/12/08 04:58:29;;;;;;;6.80;3.97;;;;;;;;;;5039869;28;20022;-77
2023/12/08 05:00:55;;;;;;;4.70;3.42;;;;;;;;;;5037680;28;20044;-76
2023/12/08 05:03:23;;;;;;;6.18;3.40;;;;;;;;;;5033782;28;20025;-77
2023/12/08 05:05:49;;;;;;;6.25;2.90;;;;;;;;;;5045391;28;20041;-77
2023/12/08 05:08:15;;;;;;;4.90;2.90;;;;;;;;;;5036058;28;20017;-76
2023/12/08 05:10:41;;;;;;;5.22;2.97;;;;;;;;;;5036573;28;20029;-77
2023/12/08 05:13:08;;;;;;;5.50;2.83;;;;;;;;;;5036539;28;20030;-75
2023/12/08 05:15:34;;;;;;;3.92;2.75;;;;;;;;;;5037360;28;20498;-76
2023/12/08 05:18:00;;;;;;;4.68;2.65;;;;;;;;;;5039049;28;20034;-75
2023/12/08 05:20:26;;;;;;;4.82;2.70;;;;;;;;;;5050400;28;20384;-75
2023/12/08 05:22:52;;;;;;;3.95;2.42;;;;;;;;;;5052058;28;20040;-75
2023/12/08 05:25:18;;;;;;;5.32;3.05;;;;;;;;;;5051998;28;20672;-76
2023/12/08 05:27:44;;;;;;;4.43;3.05;;;;;;;;;;5046562;28;20029;-76
2023/12/08 05:30:11;;;;;;;5.00;2.67;;;;;;;;;;5048733;28;20026;-76
2023/12/08 05:32:37;;;;;;;3.25;2.40;;;;;;;;;;5054412;28;20048;-76
2023/12/08 05:35:03;;;;;;;3.47;2.58;;;;;;;;;;5053916;28;20033;-77
2023/12/08 05:37:30;;;;;;;2.92;2.35;;;;;;;;;;5050462;28;20029;-76
2023/12/08 05:39:56;;;;;;;3.00;2.13;;;;;;;;;;5049207;28;20033;-76
2023/12/08 05:42:22;;;;;;;5.63;3.00;;;;;;;;;;5044657;28;20045;-77
2023/12/08 05:44:48;;;;;;;4.47;2.30;;;;;;;;;;5043033;28;20025;-77
2023/12/08 05:47:14;;;;;;;3.55;2.22;;;;;;;;;;5043195;28;20507;-76
2023/12/08 05:49:40;;;;;;;3.10;2.30;;;;;;;;;;5044737;28;20100;-76
2023/12/08 05:52:06;;;;;;;2.63;2.13;;;;;;;;;;5047045;28;20026;-76
2023/12/08 05:54:32;;;;;;;3.88;2.63;;;;;;;;;;5050582;28;20053;-77
2023/12/08 05:56:58;;;;;;;5.10;3.35;;;;;;;;;;5050565;28;20017;-77
2023/12/08 05:59:25;;;;;;;4.82;3.35;;;;;;;;;;5040326;28;20036;-77
2023/12/08 06:01:51;;;;;;;4.05;2.85;;;;;;;;;;5042999;28;20392;-76
2023/12/08 06:04:17;;;;;;;4.78;2.65;;;;;;;;;;5039875;28;20079;-75
2023/12/08 06:06:43;;;;;;;3.42;2.20;;;;;;;;;;5043006;28;20029;-77
2023/12/08 06:09:09;;;;;;;3.08;2.20;;;;;;;;;;5035213;28;20079;-74
2023/12/08 06:11:35;;;;;;;3.28;2.10;;;;;;;;;;5037140;28;20053;-77
2023/12/08 06:14:01;;;;;;;2.88;2.17;;;;;;;;;;5037175;28;20039;-75
2023/12/08 06:16:28;;;;;;;2.13;1.55;;;;;;;;;;5041649;28;20025;-76
2023/12/08 06:18:54;;;;;;;3.03;2.00;;;;;;;;;;5043678;28;20048;-76
2023/12/08 06:21:20;;;;;;;3.90;2.28;;;;;;;;;;5045737;28;20052;-75
2023/12/08 06:23:46;;;;;;;2.80;2.10;;;;;;;;;;5041326;28;20037;-75
2023/12/08 06:26:12;;;;;;;2.80;2.00;;;;;;;;;;5035294;28;20026;-76
2023/12/08 06:28:38;;;;;;;2.97;2.13;;;;;;;;;;5034781;28;20393;-77
2023/12/08 06:31:04;;;;;;;2.63;1.73;;;;;;;;;;5035031;28;20079;-76
2023/12/08 06:33:30;;;;;;;3.78;1.92;;;;;;;;;;5042859;28;20026;-76
2023/12/08 06:35:57;;;;;;;2.20;1.55;;;;;;;;;;5043045;28;20021;-76
2023/12/08 06:38:23;;;;;;;3.45;1.90;;;;;;;;;;5035227;28;20484;-75
2023/12/08 06:40:49;;;;;;;3.50;2.10;;;;;;;;;;5034340;28;20116;-75
2023/12/08 06:43:15;;;;;;;3.15;2.13;;;;;;;;;;5035292;28;20025;-76
2023/12/08 06:45:41;;;;;;;4.35;2.80;;;;;;;;;;5034508;28;20017;-76
2023/12/08 06:48:08;;;;;;;5.45;3.20;;;;;;;;;;5034517;28;20018;-75
2023/12/08 06:50:34;;;;;;;4.15;2.88;;;;;;;;;;5034835;28;20032;-76
2023/12/08 06:53:00;;;;;;;3.85;2.47;;;;;;;;;;5033615;28;20400;-76
2023/12/08 06:55:26;;;;;;;3.92;2.85;;;;;;;;;;5030562;28;20029;-76
2023/12/08 06:57:53;;;;;;;6.95;3.88;;;;;;;;;;5034322;28;20059;-75
2023/12/08 07:00:19;;;;;;;6.55;4.60;;;;;;;;;;5036663;28;20029;-76
2023/12/08 07:02:46;;;;;;;6.72;4.18;;;;;;;;;;5035190;28;20052;-77
2023/12/08 07:05:12;;;;;;;7.57;4.40;;;;;;;;;;5051680;28;20112;-80
2023/12/08 07:07:39;;;;;;;7.25;4.28;;;;;;;;;;5042862;28;20080;-80
2023/12/08 07:10:05;;;;;;;6.80;4.03;;;;;;;;;;5040685;28;20025;-80
2023/12/08 07:12:31;;;;;;;7.80;3.78;;;;;;;;;;5044192;28;20021;-79
2023/12/08 07:14:57;;;;;;;6.82;3.42;;;;;;;;;;5027582;28;20026;-80
2023/12/08 07:17:24;;;;;;;4.43;2.67;;;;;;;;;;5050340;28;20217;-80
2023/12/08 07:19:50;;;;;;;4.50;2.72;;;;;;;;;;5047558;28;20021;-78
2023/12/08 07:22:17;;;;;;;5.22;3.40;;;;;;;;;;5046577;28;20026;-78
2023/12/08 07:24:43;;;;;;;4.82;3.15;;;;;;;;;;5042708;28;20081;-79
2023/12/08 07:27:09;;;;;;;7.07;4.45;;;;;;;;;;5066863;28;20017;-79
2023/12/08 07:29:35;;;;;;;5.35;3.80;;;;;;;;;;5064293;28;20010;-78
2023/12/08 07:32:01;;;;;;;8.88;4.18;;;;;;;;;;5057060;28;20023;-78
2023/12/08 07:34:27;;;;;;;7.47;4.45;;;;;;;;;;5067554;28;20040;-79
2023/12/08 07:36:53;;;;;;;5.72;3.63;;;;;;;;;;5055554;28;20262;-80
2023/12/08 07:39:20;;;;;;;7.82;3.33;;;;;;;;;;5038404;28;20048;-79
2023/12/08 07:41:46;;;;;;;6.32;3.88;;;;;;;;;;5040754;28;20033;-80
2023/12/08 07:44:12;;;;;;;4.63;3.15;;;;;;;;;;5038839;28;20025;-79
2023/12/08 07:46:38;;;;;;;4.35;2.95;;;;;;;;;;5040308;28;20021;-77
2023/12/08 07:49:04;;;;;;;4.97;2.90;;;;;;;;;;5041444;28;20036;-77
2023/12/08 07:51:35;;;;;;;3.63;2.47;;;;;;;;;;5043138;28;20021;-75
2023/12/08 07:54:03;;;;;;;4.07;2.70;;;;;;;;;;5051429;28;20079;-77
2023/12/08 07:56:29;;;;;;;3.53;2.60;;;;;;;;;;5040972;28;20466;-80
2023/12/08 07:58:55;;;;;;;4.25;2.85;;;;;;;;;;5042801;28;20031;-79
2023/12/08 08:01:21;;;;;;;4.35;2.72;;;;;;;;;;5041642;28;20491;-78
2023/12/08 08:03:47;;;;;;;4.43;2.65;;;;;;;;;;5055912;28;20029;-78
2023/12/08 08:06:13;;;;;;;3.22;2.38;;;;;;;;;;5059618;28;20434;-77
2023/12/08 08:08:40;;;;;;;3.15;2.33;;;;;;;;;;5040540;28;20026;-78
2023/12/08 08:11:06;;;;;;;3.47;2.45;;;;;;;;;;5042251;28;20041;-78
2023/12/08 08:13:32;;;;;;;4.35;2.58;;;;;;;;;;5039917;28;20087;-79
2023/12/08 08:15:58;;;;;;;3.22;2.13;;;;;;;;;;5041485;28;20076;-78
2023/12/08 08:18:24;;;;;;;3.25;2.35;;;;;;;;;;5041075;28;20018;-77
2023/12/08 08:20:50;;;;;;;4.05;2.35;;;;;;;;;;5043511;28;20385;-80
2023/12/08 08:23:16;;;;;;;4.35;2.60;;;;;;;;;;5042270;28;20021;-79
2023/12/08 08:25:43;;;;;;;3.63;2.55;;;;;;;;;;5041173;28;20092;-78
2023/12/08 08:28:09;;;;;;;3.92;2.35;;;;;;;;;;5040857;28;20081;-78
2023/12/08 08:30:35;;;;;;;3.30;2.30;;;;;;;;;;5042477;28;20024;-78
2023/12/08 08:33:02;;;;;;;2.78;2.10;;;;;;;;;;5041915;28;20064;-78
2023/12/08 08:35:28;;;;;;;3.63;2.78;;;;;;;;;;5041468;28;20029;-78
2023/12/08 08:37:54;;;;;;;2.70;2.38;;;;;;;;;;5045473;28;20056;-78
2023/12/08 08:40:20;;;;;;;3.83;2.33;;;;;;;;;;5042309;28;20025;-78
2023/12/08 08:42:47;;;;;;;3.33;2.13;;;;;;;;;;5052020;28;20028;-78
2023/12/08 08:45:13;;;;;;;3.10;2.00;;;;;;;;;;5045749;28;20075;-79
2023/12/08 08:47:39;;;;;;;3.55;2.20;;;;;;;;;;5046059;28;20018;-79
2023/12/08 08:50:06;;;;;;;1.65;1.50;;;;;;;;;;5045010;28;20018;-77
2023/12/08 08:52:34;;;;;;;3.35;2.15;;;;;;;;;;5045596;28;20021;-79
2023/12/08 08:55:00;;;;;;;2.55;1.65;;;;;;;;;;5045015;28;20028;-79
2023/12/08 08:57:26;;;;;;;1.63;1.30;;;;;;;;;;5044980;28;20360;-77
2023/12/08 08:59:52;;;;;;;2.13;1.80;;;;;;;;;;5049241;28;20019;-74
2023/12/08 09:02:18;;;;;;;2.10;1.60;;;;;;;;;;5055892;28;20088;-78
2023/12/08 09:04:44;;;;;;;3.10;1.75;;;;;;;;;;5051537;28;20040;-78
2023/12/08 09:07:10;;;;;;;1.90;1.38;;;;;;;;;;5048171;28;20017;-76
2023/12/08 09:09:36;;;;;;;2.10;1.48;;;;;;;;;;5046512;28;20380;-78
2023/12/08 09:12:03;;;;;;;1.42;1.30;;;;;;;;;;5044608;28;20104;-78
2023/12/08 09:14:30;;;;;;;2.47;1.40;;;;;;;;;;5036365;28;20029;-79
2023/12/08 09:16:57;;;;;;;1.60;1.50;;;;;;;;;;5046923;28;20025;-77
2023/12/08 09:19:23;;;;;;;2.17;1.42;;;;;;;;;;5053587;28;20037;-77
2023/12/08 09:21:49;;;;;;;1.20;1.10;;;;;;;;;;5061222;28;20017;-76
2023/12/08 09:24:15;;;;;;;1.83;1.30;;;;;;;;;;5054901;28;20024;-76
2023/12/08 09:26:41;;;;;;;1.42;1.33;;;;;;;;;;5047249;28;20060;-78
2023/12/08 09:29:07;;;;;;;1.35;1.25;;;;;;;;;;5043277;28;20113;-79
2023/12/08 09:31:36;;;;;;;1.25;1.15;;;;;;;;;;5043376;28;20040;-80
2023/12/08 09:34:02;;;;;;;2.22;1.33;;;;;;;;;;5052272;28;20025;-77
2023/12/08 09:36:28;;;;;;;1.92;1.75;;;;;;;;;;5039613;28;20030;-78
2023/12/08 09:38:54;;;;;;;2.42;1.35;;;;;;;;;;5042300;28;20025;-78
2023/12/08 09:41:21;;;;;;;2.92;1.98;;;;;;;;;;5022860;28;20036;-77
2023/12/08 09:43:55;;;;;;;2.42;1.88;;;;;;;;;;5040213;28;20032;-79
2023/12/08 09:46:22;;;;;;;2.65;1.98;;;;;;;;;;5043170;28;20152;-78
2023/12/08 09:48:49;;;;;;;3.38;2.30;;;;;;;;;;5043736;28;20116;-78
2023/12/08 09:51:16;;;;;;;5.38;3.28;;;;;;;;;;5045519;28;20025;-78
2023/12/08 09:53:45;;;;;;;4.65;3.58;;;;;;;;;;5039928;28;20268;-78
2023/12/08 09:56:13;;;;;;;9.27;5.10;;;;;;;;;;5043361;28;20471;-77
2023/12/08 09:58:40;;;;;;;9.70;5.70;;;;;;;;;;5042748;28;20491;-79
2023/12/08 10:01:08;;;;;;;9.95;6.05;;;;;;;;;;5046032;28;20085;-78
2023/12/08 10:03:34;;;;;;;10.15;5.65;;;;;;;;;;5036237;28;20037;-76
2023/12/08 10:06:01;;;;;;;9.32;5.10;;;;;;;;;;5056288;28;20041;-79
2023/12/08 10:08:30;;;;;;;8.02;4.95;;;;;;;;;;5054716;28;20098;-77
2023/12/08 10:10:56;;;;;;;7.47;4.80;;;;;;;;;;5065009;28;20010;-78
2023/12/08 10:13:22;;;;;;;8.45;4.85;;;;;;;;;;5056802;28;20068;-76
2023/12/08 10:15:48;;;;;;;11.35;5.95;;;;;;;;;;5055735;28;20020;-76
2023/12/08 10:18:24;;;;;;;10.93;5.80;;;;;;;;;;5058202;28;20036;-78
2023/12/08 10:20:51;;;;;;;10.90;5.93;;;;;;;;;;5057386;28;20045;-77
2023/12/08 10:23:20;;;;;;;11.70;5.88;;;;;;;;;;5057767;28;20045;-78
2023/12/08 10:25:47;;;;;;;10.57;6.15;;;;;;;;;;5058192;28;20022;-78
2023/12/08 10:28:13;;;;;;;7.68;5.40;;;;;;;;;;5057473;28;20017;-77
2023/12/08 10:30:44;;;;;;;10.98;6.18;;;;;;;;;;5057870;28;20040;-77
2023/12/08 10:33:18;;;;;;;10.13;5.82;;;;;;;;;;5064757;28;20013;-78
2023/12/08 10:35:44;;;;;;;10.30;5.95;;;;;;;;;;5057993;28;20033;-77
2023/12/08 10:38:10;;;;;;;7.90;5.40;;;;;;;;;;5065296;28;20077;-78
2023/12/08 10:40:36;;;;;;;10.57;5.70;;;;;;;;;;5056587;28;20013;-76
2023/12/08 10:43:05;;;;;;;8.02;5.50;;;;;;;;;;5056430;28;20037;-77
2023/12/08 10:45:32;;;;;;;8.82;5.75;;;;;;;;;;5055936;28;20009;-77
2023/12/08 10:47:58;;;;;;;9.88;5.75;;;;;;;;;;5057656;28;20065;-77
2023/12/08 10:50:26;;;;;;;8.73;5.78;;;;;;;;;;5056933;28;20085;-78
2023/12/08 10:52:52;;;;;;;8.93;5.95;;;;;;;;;;5057537;28;20101;-76
2023/12/08 10:55:18;;;;;;;9.77;6.22;;;;;;;;;;5055728;28;20022;-77
2023/12/08 10:57:47;;;;;;;14.98;7.18;;;;;;;;;;5056922;28;20041;-77
2023/12/08 11:00:18;;;;;;;11.48;6.47;;;;;;;;;;5052307;28;20021;-79
2023/12/08 11:02:49;;;;;;;11.48;7.78;;;;;;;;;;5045140;28;20035;-78
2023/12/08 11:05:20;;;;;;;12.90;6.50;;;;;;;;;;5059225;28;20043;-79
2023/12/08 11:07:47;;;;;;;11.60;6.60;;;;;;;;;;5041941;28;20017;-78
2023/12/08 11:10:15;;;;;;;12.52;7.72;;;;;;;;;;5041876;28;20018;-79
2023/12/08 11:12:56;;;;;;;11.73;7.63;;;;;;;;;;5041578;28;20064;-78
2023/12/08 11:15:22;;;;;;;10.23;6.47;;;;;;;;;;5042213;28;20049;-77
2023/12/08 11:18:14;;;;;;;12.27;7.45;;;;;;;;;;5041165;28;20022;-78
2023/12/08 11:20:41;;;;;;;12.77;7.03;;;;;;;;;;5034060;28;20444;-78
2023/12/08 11:23:07;;;;;;;21.67;7.13;;;;;;;;;;5042289;28;20028;-79
2023/12/08 11:25:41;;;;;;;9.63;6.40;;;;;;;;;;5041636;28;20435;-77
2023/12/08 11:28:13;;;;;;;12.05;6.65;;;;;;;;;;5040815;28;20034;-78
2023/12/08 11:30:59;;;;;;;9.88;5.60;;;;;;;;;;5043817;28;20024;-77
2023/12/08 11:33:25;;;;;;;8.30;4.57;;;;;;;;;;5039255;28;20033;-78
2023/12/08 11:35:53;;;;;;;7.43;5.07;;;;;;;;;;5039196;28;20486;-78
2023/12/08 11:38:28;;;;;;;6.50;4.38;;;;;;;;;;5039752;28;20109;-78
2023/12/08 11:40:55;;;;;;;6.95;4.25;;;;;;;;;;5040469;28;20025;-78
2023/12/08 11:43:21;;;;;;;5.30;3.75;;;;;;;;;;5041364;28;20022;-77
2023/12/08 11:45:49;;;;;;;5.32;3.60;;;;;;;;;;5041159;28;20353;-78
2023/12/08 11:48:15;;;;;;;5.32;3.63;;;;;;;;;;5041250;28;20041;-78
2023/12/08 11:50:42;;;;;;;4.13;2.90;;;;;;;;;;5044156;28;20052;-79
2023/12/08 11:53:08;;;;;;;4.85;3.25;;;;;;;;;;5050374;28;20076;-78
2023/12/08 11:55:34;;;;;;;4.15;2.90;;;;;;;;;;5042589;28;20036;-77
2023/12/08 11:58:00;;;;;;;4.68;3.17;;;;;;;;;;5043784;28;20025;-79
2023/12/08 12:00:28;;;;;;;3.60;2.35;;;;;;;;;;5041023;28;20472;-78
2023/12/08 12:02:56;;;;;;;3.53;2.40;;;;;;;;;;5038524;28;20135;-79
2023/12/08 12:05:22;;;;;;;4.30;3.05;;;;;;;;;;5044876;28;20037;-79
2023/12/08 12:07:49;;;;;;;3.72;2.65;;;;;;;;;;5040931;28;20022;-79
2023/12/08 12:10:17;;;;;;;3.35;2.17;;;;;;;;;;5037629;28;20045;-77
2023/12/08 12:12:52;;;;;;;3.45;2.78;;;;;;;;;;5037393;28;20117;-78
2023/12/08 12:15:19;;;;;;;3.08;2.45;;;;;;;;;;5037899;28;20022;-78
2023/12/08 12:17:47;;;;;;;3.03;2.47;;;;;;;;;;5038820;28;20108;-78
2023/12/08 12:20:14;;;;;;;4.40;2.85;;;;;;;;;;5044553;28;20025;-78
2023/12/08 12:22:40;;;;;;;3.60;2.10;;;;;;;;;;5040756;28;20021;-78
2023/12/08 12:25:08;;;;;;;2.78;2.17;;;;;;;;;;5040374;28;20531;-78
2023/12/08 12:27:38;;;;;;;3.78;2.58;;;;;;;;;;5032411;28;20033;-77
2023/12/08 12:30:04;;;;;;;3.20;2.25;;;;;;;;;;5042051;28;20032;-77
2023/12/08 12:32:30;;;;;;;2.40;2.20;;;;;;;;;;5043451;28;20021;-78
2023/12/08 12:34:56;;;;;;;2.97;2.15;;;;;;;;;;5052582;28;20013;-79
2023/12/08 12:37:23;;;;;;;3.08;1.88;;;;;;;;;;5046934;28;20029;-77
2023/12/08 12:39:49;;;;;;;1.98;1.77;;;;;;;;;;5054171;28;20044;-78
2023/12/08 12:42:15;;;;;;;4.15;2.22;;;;;;;;;;5052968;28;20025;-77
2023/12/08 12:44:43;;;;;;;2.17;1.67;;;;;;;;;;5052441;28;20021;-78
2023/12/08 12:47:09;;;;;;;3.13;2.15;;;;;;;;;;5054507;28;20025;-76
2023/12/08 12:49:59;;;;;;;2.22;1.63;;;;;;;;;;5053286;28;20049;-76
2023/12/08 12:52:26;;;;;;;2.47;1.63;;;;;;;;;;5055639;28;20025;-76
2023/12/08 12:54:55;;;;;;;2.25;1.67;;;;;;;;;;5061282;28;20280;-76
2023/12/08 12:57:39;;;;;;;3.17;1.88;;;;;;;;;;5056592;28;20033;-77
2023/12/08 13:00:06;;;;;;;2.80;1.83;;;;;;;;;;5056056;28;20056;-77
2023/12/08 13:02:32;;;;;;;1.55;1.40;;;;;;;;;;5053960;28;20049;-77
2023/12/08 13:05:03;;;;;;;1.10;1.05;;;;;;;;;;5039699;28;20010;-78
2023/12/08 13:07:29;;;;;;;1.88;1.50;;;;;;;;;;5042883;28;20029;-78
2023/12/08 13:09:56;;;;;;;2.08;1.63;;;;;;;;;;5041504;28;20071;-79
2023/12/08 13:12:23;;;;;;;2.45;1.67;;;;;;;;;;5042153;28;20048;-78
2023/12/08 13:14:49;;;;;;;1.45;1.23;;;;;;;;;;5041427;28;20025;-77
2023/12/08 13:17:15;;;;;;;2.22;1.30;;;;;;;;;;5039821;28;20022;-78
2023/12/08 13:19:41;;;;;;;2.65;1.25;;;;;;;;;;5038719;28;20029;-77
2023/12/08 13:22:07;;;;;;;1.63;1.50;;;;;;;;;;5047319;28;20053;-77
2023/12/08 13:24:34;;;;;;;1.67;1.20;;;;;;;;;;5048452;28;20499;-78
2023/12/08 13:27:00;;;;;;;1.30;1.20;;;;;;;;;;5045262;28;20155;-78
2023/12/08 13:29:26;;;;;;;1.15;1.05;;;;;;;;;;5055583;28;20024;-77
2023/12/08 13:31:52;;;;;;;1.10;1.00;;;;;;;;;;5061513;28;20052;-78
2023/12/08 13:34:18;;;;;;;1.23;1.13;;;;;;;;;;5074921;28;20021;-77
2023/12/08 13:36:44;;;;;;;1.45;1.17;;;;;;;;;;5064835;28;20040;-78
2023/12/08 13:39:10;;;;;;;1.30;1.20;;;;;;;;;;5065773;28;20029;-77
2023/12/08 13:41:37;;;;;;;1.10;1.00;;;;;;;;;;5056413;28;20028;-77
2023/12/08 13:44:03;;;;;;;1.90;1.20;;;;;;;;;;5056798;28;20033;-78
2023/12/08 13:46:29;;;;;;;1.70;1.48;;;;;;;;;;5047332;28;20116;-78
2023/12/08 13:48:55;;;;;;;1.73;1.00;;;;;;;;;;5044396;28;20033;-78
2023/12/08 13:51:21;;;;;;;1.23;0.98;;;;;;;;;;5044086;28;20029;-78
2023/12/08 13:53:48;;;;;;;1.50;0.95;;;;;;;;;;5043474;28;20045;-79
2023/12/08 13:56:15;;;;;;;2.35;1.23;;;;;;;;;;5036766;28;20025;-78
2023/12/08 13:58:41;;;;;;;1.10;1.02;;;;;;;;;;5032011;28;20024;-78
2023/12/08 14:01:07;;;;;;;1.00;0.90;;;;;;;;;;5049578;28;20090;-78
2023/12/08 14:03:33;;;;;;;1.25;1.15;;;;;;;;;;5050937;28;20257;-79
2023/12/08 14:05:59;;;;;;;1.70;1.38;;;;;;;;;;5044289;28;20030;-78
2023/12/08 14:08:26;;;;;;;1.48;1.10;;;;;;;;;;5045872;28;20018;-78
2023/12/08 14:10:52;;;;;;;1.77;1.38;;;;;;;;;;5037363;28;20033;-79
2023/12/08 14:13:18;;;;;;;2.75;1.65;;;;;;;;;;5037898;28;20437;-79
2023/12/08 14:15:44;;;;;;;1.75;1.45;;;;;;;;;;5030487;28;20447;-80
2023/12/08 14:18:11;;;;;;;1.45;1.20;;;;;;;;;;5032883;28;20037;-79
2023/12/08 14:20:37;;;;;;;1.58;1.38;;;;;;;;;;5033166;28;20029;-80
2023/12/08 14:23:03;;;;;;;1.95;1.30;;;;;;;;;;5032923;28;20025;-80
2023/12/08 14:25:29;;;;;;;2.40;1.50;;;;;;;;;;5035163;28;20025;-79
2023/12/08 14:27:55;;;;;;;1.60;1.23;;;;;;;;;;5033208;28;20017;-79
2023/12/08 14:30:21;;;;;;;2.00;1.40;;;;;;;;;;5033103;28;20030;-78
2023/12/08 14:32:48;;;;;;;1.98;1.50;;;;;;;;;;5045192;28;20025;-78
2023/12/08 14:35:14;;;;;;;2.20;1.70;;;;;;;;;;5038717;28;20026;-79
2023/12/08 14:37:40;;;;;;;1.52;1.33;;;;;;;;;;5033407;28;20128;-80
2023/12/08 14:40:07;;;;;;;1.30;1.20;;;;;;;;;;5038849;28;20522;-80